Time;durP1;ratioP1;P1;durP2;ratioP2;P2;SDS_P1;SDS_P2;PMS_P1;PMS_P2;Temp;Humidity;BMP_temperature;BMP_pressure;BME280_temperature;BME280_humidity;BME280_pressure;Samples;Min_cycle;Max_cycle;Signal;HPM_P1;HPM_P2
2022/09/10 00:01:17;;;;;;;5.47;2.28;;;;;;;14.11;89.81;100828.13;5035933;28;20036;-77
2022/09/10 00:03:43;;;;;;;5.88;2.40;;;;;;;14.11;89.94;100828.13;5037661;28;20028;-78
2022/09/10 00:06:09;;;;;;;6.03;2.45;;;;;;;14.11;90.02;100825.50;5038521;28;20029;-77
2022/09/10 00:08:35;;;;;;;5.90;2.60;;;;;;;14.09;90.06;100835.19;5036295;28;20049;-77
2022/09/10 00:11:04;;;;;;;5.07;2.30;;;;;;;14.10;90.07;100825.56;5032361;28;20441;-77
2022/09/10 00:13:30;;;;;;;5.07;2.13;;;;;;;14.09;90.02;100822.09;5036429;28;20029;-77
2022/09/10 00:15:55;;;;;;;7.75;2.28;;;;;;;14.11;90.07;100828.13;5034839;28;20384;-77
2022/09/10 00:18:21;;;;;;;6.82;2.40;;;;;;;14.11;89.90;100820.28;5036395;28;20021;-77
2022/09/10 00:20:52;;;;;;;6.93;2.80;;;;;;;14.11;90.00;100817.66;5036348;28;20037;-77
2022/09/10 00:23:20;;;;;;;5.28;2.38;;;;;;;14.10;90.03;100815.09;5033665;28;20091;-77
2022/09/10 00:25:46;;;;;;;5.50;2.45;;;;;;;14.10;90.23;100812.47;5043252;28;20040;-74
2022/09/10 00:28:12;;;;;;;5.55;2.70;;;;;;;14.09;90.16;100803.78;5038145;28;20029;-75
2022/09/10 00:30:47;;;;;;;5.80;2.38;;;;;;;14.09;90.50;100816.88;5041815;28;20025;-75
2022/09/10 00:33:13;;;;;;;6.55;2.60;;;;;;;14.08;90.24;100812.53;5048646;28;20480;-75
2022/09/10 00:35:39;;;;;;;6.63;2.70;;;;;;;14.08;90.44;100812.53;5048568;28;20099;-75
2022/09/10 00:38:06;;;;;;;4.80;2.40;;;;;;;14.06;90.59;100814.38;5048983;28;20437;-74
2022/09/10 00:40:32;;;;;;;7.15;3.00;;;;;;;14.06;90.48;100814.38;5034842;28;20032;-74
2022/09/10 00:42:57;;;;;;;6.78;2.70;;;;;;;14.06;90.77;100811.75;5039461;28;20031;-75
2022/09/10 00:45:25;;;;;;;5.82;3.25;;;;;;;14.06;90.54;100818.75;5037890;28;20044;-75
2022/09/10 00:47:55;;;;;;;7.18;2.97;;;;;;;14.04;90.58;100810.97;5046833;28;20041;-75
2022/09/10 00:50:25;;;;;;;8.32;2.75;;;;;;;14.05;90.63;100809.22;5032364;28;20041;-75
2022/09/10 00:52:54;;;;;;;6.88;3.22;;;;;;;14.03;90.89;100816.28;5034369;28;20033;-75
2022/09/10 00:55:20;;;;;;;8.55;3.20;;;;;;;14.02;90.93;100807.56;5034645;28;20029;-75
2022/09/10 00:57:48;;;;;;;6.80;3.55;;;;;;;14.02;91.02;100811.94;5043351;28;20480;-75
2022/09/10 01:00:17;;;;;;;7.63;3.47;;;;;;;14.02;90.80;100812.78;5039520;28;20039;-75
2022/09/10 01:02:43;;;;;;;7.32;3.67;;;;;;;14.03;90.87;100813.66;5033734;28;20037;-74
2022/09/10 01:05:09;;;;;;;6.72;3.60;;;;;;;14.03;90.96;100808.41;5039859;28;20067;-75
2022/09/10 01:07:35;;;;;;;8.10;4.05;;;;;;;14.02;90.99;100812.78;5037360;28;20068;-74
2022/09/10 01:10:07;;;;;;;7.60;3.40;;;;;;;14.04;91.02;100816.19;5037811;28;20108;-75
2022/09/10 01:12:47;;;;;;;10.02;3.83;;;;;;;14.04;91.16;100813.56;5032685;28;20040;-75
2022/09/10 01:15:27;;;;;;;8.95;4.00;;;;;;;14.04;91.17;100813.56;5035805;28;20043;-75
2022/09/10 01:18:24;;;;;;;6.90;3.53;;;;;;;14.05;91.23;100820.50;5042878;28;20036;-75
2022/09/10 01:21:03;;;;;;;6.00;3.47;;;;;;;14.07;91.14;100816.06;5031523;28;20041;-74
2022/09/10 01:24:11;;;;;;;6.78;3.78;;;;;;;14.08;91.11;100823.00;5033081;28;20079;-75
2022/09/10 01:27:25;;;;;;;10.07;4.03;;;;;;;14.10;91.07;100829.03;5041366;28;20074;-74
2022/09/10 01:29:56;;;;;;;8.27;3.80;;;;;;;14.09;91.21;100829.94;5008572;28;20049;-74
2022/09/10 01:32:55;;;;;;;7.57;3.88;;;;;;;14.10;91.19;100831.66;5022332;28;20056;-75
2022/09/10 01:35:35;;;;;;;6.55;3.90;;;;;;;14.08;91.48;100825.63;5031004;28;20480;-75
2022/09/10 01:38:05;;;;;;;6.38;3.83;;;;;;;14.08;91.38;100823.00;5036118;28;20040;-75
2022/09/10 01:40:31;;;;;;;6.50;3.65;;;;;;;14.08;91.34;100825.63;5038458;28;20040;-74
2022/09/10 01:43:14;;;;;;;11.05;4.10;;;;;;;14.08;91.41;100828.25;5034953;28;20424;-74
2022/09/10 01:45:50;;;;;;;9.82;4.50;;;;;;;14.07;91.53;100826.53;5034844;28;20066;-75
2022/09/10 01:48:27;;;;;;;7.43;3.78;;;;;;;14.09;91.60;100823.88;5035062;28;20025;-75
2022/09/10 01:51:07;;;;;;;8.45;3.97;;;;;;;14.08;91.46;100823.00;5035408;28;20025;-75
2022/09/10 01:53:39;;;;;;;6.20;4.00;;;;;;;14.08;91.83;100816.94;5033053;28;20033;-76
2022/09/10 01:56:23;;;;;;;;;;;;;;;14.14;90.83;100826.31;5032380;28;20025;-75
2022/09/10 01:58:49;;;;;;;7.35;4.07;;;;;;;14.13;91.46;100819.38;5036648;28;19956;-75
2022/09/10 02:01:32;;;;;;;8.00;4.10;;;;;;;14.14;91.61;100818.44;5043275;28;20168;-75
2022/09/10 02:04:04;;;;;;;5.93;3.67;;;;;;;14.15;91.99;100820.16;5033593;28;20029;-75
2022/09/10 02:06:33;;;;;;;7.28;4.00;;;;;;;14.15;91.98;100812.31;5034909;28;20021;-75
2022/09/10 02:09:00;;;;;;;7.55;4.13;;;;;;;14.15;92.03;100822.78;5035723;28;20029;-75
2022/09/10 02:11:27;;;;;;;7.85;4.22;;;;;;;14.15;91.99;100817.53;5034930;28;20124;-75
2022/09/10 02:13:52;;;;;;;8.88;4.28;;;;;;;14.16;92.15;100812.22;5038549;28;20025;-75
2022/09/10 02:16:36;;;;;;;7.45;4.38;;;;;;;14.16;92.36;100822.69;5041601;28;21727;-75
2022/09/10 02:19:03;;;;;;;9.15;4.35;;;;;;;14.16;92.30;100814.00;5038073;28;20079;-75
2022/09/10 02:21:28;;;;;;;9.55;4.32;;;;;;;14.16;92.49;100814.84;5039154;28;20116;-75
2022/09/10 02:24:07;;;;;;;7.57;4.55;;;;;;;14.16;92.85;100809.63;5036611;28;20108;-75
2022/09/10 02:26:33;;;;;;;7.13;4.63;;;;;;;14.16;92.60;100804.38;5041378;28;20025;-75
2022/09/10 02:29:00;;;;;;;9.15;4.50;;;;;;;14.19;92.67;100806.00;5036754;28;20037;-75
2022/09/10 02:31:26;;;;;;;10.82;4.78;;;;;;;14.18;92.62;100806.91;5038723;28;20093;-75
2022/09/10 02:33:53;;;;;;;10.02;4.93;;;;;;;14.18;93.06;100802.56;5038204;28;20120;-75
2022/09/10 02:36:19;;;;;;;10.48;4.72;;;;;;;14.18;92.85;100807.78;5039667;28;20033;-75
2022/09/10 02:38:44;;;;;;;7.25;4.25;;;;;;;14.18;92.88;100802.56;5041685;28;20032;-75
2022/09/10 02:41:09;;;;;;;8.73;5.10;;;;;;;14.19;93.13;100795.53;5037711;28;20041;-75
2022/09/10 02:43:36;;;;;;;7.32;4.90;;;;;;;14.17;93.26;100798.22;5039674;28;20029;-75
2022/09/10 02:46:03;;;;;;;7.75;5.10;;;;;;;14.18;93.55;100799.94;5041105;28;20025;-75
2022/09/10 02:48:29;;;;;;;8.80;5.15;;;;;;;14.18;93.29;100802.56;5036233;28;20029;-75
2022/09/10 02:50:55;;;;;;;9.38;4.60;;;;;;;14.19;93.76;100806.00;5017320;28;20121;-76
2022/09/10 02:53:20;;;;;;;8.18;4.95;;;;;;;14.18;93.52;100801.69;5038187;28;20111;-75
2022/09/10 02:55:46;;;;;;;10.43;5.15;;;;;;;14.16;93.88;100796.53;5039137;28;20036;-77
2022/09/10 02:58:15;;;;;;;8.00;4.95;;;;;;;14.20;93.94;100805.09;5040963;28;20083;-75
2022/09/10 03:00:41;;;;;;;9.90;5.13;;;;;;;14.18;93.92;100802.56;5038810;28;20032;-75
2022/09/10 03:03:07;;;;;;;8.35;4.95;;;;;;;14.19;94.17;100800.78;5033983;28;20083;-75
2022/09/10 03:05:32;;;;;;;8.02;5.00;;;;;;;14.20;94.17;100797.25;5037897;28;20053;-75
2022/09/10 03:07:59;;;;;;;8.30;4.88;;;;;;;14.19;94.27;100800.78;5038670;28;20032;-75
2022/09/10 03:10:25;;;;;;;8.55;5.10;;;;;;;14.20;94.36;100799.84;5036694;28;20025;-75
2022/09/10 03:12:51;;;;;;;9.82;5.60;;;;;;;14.19;94.41;100801.66;5045079;28;20068;-75
2022/09/10 03:15:19;;;;;;;8.30;5.07;;;;;;;14.20;94.45;100805.09;5041753;28;20437;-75
2022/09/10 03:17:45;;;;;;;7.53;5.22;;;;;;;14.20;94.54;100800.72;5044866;28;20029;-75
2022/09/10 03:20:10;;;;;;;8.80;5.57;;;;;;;14.21;94.86;100799.81;5036888;28;20087;-75
2022/09/10 03:22:37;;;;;;;8.35;5.25;;;;;;;14.22;94.56;100798.03;5035793;28;20071;-75
2022/09/10 03:25:03;;;;;;;8.80;4.90;;;;;;;14.22;94.76;100803.28;5038971;28;20048;-75
2022/09/10 03:27:29;;;;;;;9.10;5.15;;;;;;;14.23;94.92;100799.75;5038345;28;20127;-75
2022/09/10 03:29:54;;;;;;;8.05;5.20;;;;;;;14.22;94.69;100800.66;5038206;28;20116;-75
2022/09/10 03:32:20;;;;;;;9.38;5.07;;;;;;;14.24;94.79;100809.28;5034756;28;20032;-75
2022/09/10 03:34:45;;;;;;;8.07;5.30;;;;;;;14.23;94.66;100795.38;5038805;28;20452;-75
2022/09/10 03:37:10;;;;;;;9.45;5.15;;;;;;;14.24;94.52;100804.94;5038256;28;20033;-75
2022/09/10 03:39:35;;;;;;;6.80;5.03;;;;;;;14.26;94.81;100804.84;5043028;28;20455;-75
2022/09/10 03:42:03;;;;;;;8.73;5.25;;;;;;;14.25;95.07;100803.16;5035845;28;20079;-75
2022/09/10 03:44:30;;;;;;;9.63;5.05;;;;;;;14.25;94.90;100797.91;5036250;28;20029;-75
2022/09/10 03:46:56;;;;;;;7.32;4.90;;;;;;;14.25;95.26;100793.53;5035028;28;20399;-75
2022/09/10 03:49:21;;;;;;;7.55;5.20;;;;;;;14.24;95.28;100797.06;5035762;28;20119;-75
2022/09/10 03:51:47;;;;;;;7.68;4.65;;;;;;;14.25;95.18;100797.91;5033364;28;20476;-75
2022/09/10 03:54:12;;;;;;;8.57;5.03;;;;;;;14.25;95.31;100800.53;5041419;28;20043;-75
2022/09/10 03:56:38;;;;;;;9.57;5.40;;;;;;;14.25;95.59;100797.91;5038820;28;20090;-75
2022/09/10 03:59:04;;;;;;;8.93;5.28;;;;;;;14.25;95.60;100792.69;5037503;28;20105;-75
2022/09/10 04:01:29;;;;;;;10.85;5.63;;;;;;;14.26;95.54;100794.38;5037205;28;20538;-75
2022/09/10 04:03:55;;;;;;;10.23;5.18;;;;;;;14.26;95.44;100791.75;5038560;28;20033;-75
2022/09/10 04:06:21;;;;;;;9.93;5.75;;;;;;;14.26;95.34;100789.97;5035659;28;20029;-75
2022/09/10 04:08:51;;;;;;;10.10;5.50;;;;;;;14.27;95.53;100793.47;5034650;28;20029;-75
2022/09/10 04:11:17;;;;;;;9.18;5.63;;;;;;;14.25;95.45;100783.09;5035232;28;20056;-75
2022/09/10 04:13:43;;;;;;;8.63;5.65;;;;;;;14.27;95.28;100783.00;5034253;28;20038;-75
2022/09/10 04:16:09;;;;;;;10.27;5.78;;;;;;;14.25;95.37;100788.31;5040514;28;20018;-75
2022/09/10 04:18:34;;;;;;;12.20;5.88;;;;;;;14.26;95.25;100784.75;5040666;28;20036;-75
2022/09/10 04:20:59;;;;;;;11.75;6.28;;;;;;;14.26;95.76;100781.31;5033003;28;20056;-75
2022/09/10 04:23:24;;;;;;;10.35;6.35;;;;;;;14.26;95.72;100789.16;5034232;28;20036;-75
2022/09/10 04:25:51;;;;;;;9.43;5.93;;;;;;;14.25;95.66;100776.97;5039411;28;20074;-75
2022/09/10 04:28:16;;;;;;;11.68;6.18;;;;;;;14.25;95.76;100779.59;5035510;28;20528;-75
2022/09/10 04:30:43;;;;;;;10.80;6.38;;;;;;;14.25;95.84;100780.47;5034879;28;20045;-75
2022/09/10 04:33:10;;;;;;;12.02;6.80;;;;;;;14.26;96.19;100778.69;5039596;28;20037;-75
2022/09/10 04:35:36;;;;;;;11.55;6.45;;;;;;;14.26;96.04;100789.16;5041003;28;20041;-74
2022/09/10 04:38:01;;;;;;;11.07;6.70;;;;;;;14.26;95.85;100781.31;5041757;28;20013;-75
2022/09/10 04:40:26;;;;;;;10.52;6.57;;;;;;;14.27;96.15;100780.38;5036819;28;20544;-75
2022/09/10 04:42:51;;;;;;;11.52;6.63;;;;;;;14.27;96.30;100780.38;5038160;28;20040;-75
2022/09/10 04:45:18;;;;;;;11.32;6.50;;;;;;;14.26;96.03;100789.97;5037242;28;20021;-74
2022/09/10 04:47:45;;;;;;;12.52;6.95;;;;;;;14.26;96.27;100789.16;5043102;28;20444;-75
2022/09/10 04:50:13;;;;;;;9.25;6.95;;;;;;;14.27;96.17;100788.25;5016317;28;20025;-75
2022/09/10 04:52:38;;;;;;;9.23;7.10;;;;;;;14.26;96.33;100789.97;5037122;28;20611;-75
2022/09/10 04:55:04;;;;;;;13.77;7.28;;;;;;;14.27;96.42;100790.84;5037428;28;20017;-75
2022/09/10 04:57:29;;;;;;;11.60;7.20;;;;;;;14.29;96.50;100794.25;5036264;28;20035;-75
2022/09/10 04:59:54;;;;;;;11.68;6.50;;;;;;;14.30;96.22;100795.97;5038738;28;20025;-75
2022/09/10 05:02:20;;;;;;;12.05;6.82;;;;;;;14.30;96.45;100800.31;5038382;28;20464;-75
2022/09/10 05:04:45;;;;;;;9.05;6.65;;;;;;;14.31;96.33;100797.66;5033735;28;20051;-75
2022/09/10 05:07:10;;;;;;;10.68;6.70;;;;;;;14.32;96.27;100791.53;5037502;28;20038;-75
2022/09/10 05:09:36;;;;;;;10.10;6.28;;;;;;;14.30;96.45;100801.19;5036355;28;20030;-75
2022/09/10 05:12:02;;;;;;;9.25;6.38;;;;;;;14.31;96.37;100796.78;5035164;28;20100;-75
2022/09/10 05:14:28;;;;;;;11.80;6.57;;;;;;;14.32;96.17;100794.13;5037956;28;20080;-75
2022/09/10 05:16:54;;;;;;;11.68;7.07;;;;;;;14.33;96.41;100801.06;5039786;28;20484;-75
2022/09/10 05:19:19;;;;;;;10.75;6.88;;;;;;;14.34;96.27;100800.16;5036435;28;20063;-74
2022/09/10 05:21:45;;;;;;;11.88;7.72;;;;;;;14.34;96.25;100787.06;5039162;28;20033;-74
2022/09/10 05:24:11;;;;;;;14.15;7.32;;;;;;;14.35;96.38;100788.75;5041617;28;20034;-75
2022/09/10 05:26:36;;;;;;;11.07;7.47;;;;;;;14.36;96.31;100787.00;5038586;28;20346;-75
2022/09/10 05:29:01;;;;;;;11.75;7.70;;;;;;;14.36;96.15;100790.44;5036064;28;20506;-75
2022/09/10 05:31:27;;;;;;;13.80;7.47;;;;;;;14.35;96.38;100793.97;5036021;28;20021;-75
2022/09/10 05:33:53;;;;;;;10.77;7.03;;;;;;;14.36;96.39;100793.06;5038376;28;20024;-75
2022/09/10 05:36:19;;;;;;;11.93;7.45;;;;;;;14.38;96.35;100791.25;5042742;28;20064;-76
2022/09/10 05:38:45;;;;;;;15.95;7.93;;;;;;;14.38;96.57;100801.72;5034920;28;20124;-75
2022/09/10 05:41:10;;;;;;;11.45;7.45;;;;;;;14.38;96.36;100804.31;5036816;28;20070;-75
2022/09/10 05:43:36;;;;;;;10.93;7.53;;;;;;;14.40;96.76;100793.81;5034265;28;20025;-75
2022/09/10 05:46:02;;;;;;;13.20;7.90;;;;;;;14.39;96.19;100795.56;5037992;28;20477;-75
2022/09/10 05:48:27;;;;;;;12.77;7.72;;;;;;;14.42;96.46;100794.59;5044121;28;20028;-75
2022/09/10 05:50:52;;;;;;;11.88;7.63;;;;;;;14.40;96.54;100792.03;5044596;28;20029;-75
2022/09/10 05:53:17;;;;;;;11.70;7.72;;;;;;;14.42;96.22;100794.59;5046600;28;20047;-75
2022/09/10 05:55:43;;;;;;;11.52;7.63;;;;;;;14.42;96.31;100797.22;5045291;28;20083;-75
2022/09/10 05:58:09;;;;;;;10.00;7.60;;;;;;;14.42;96.79;100795.44;5048042;28;20469;-75
2022/09/10 06:00:35;;;;;;;12.90;7.97;;;;;;;14.43;96.89;100796.31;5042947;28;20036;-75
2022/09/10 06:03:01;;;;;;;10.48;7.45;;;;;;;14.45;96.72;100793.59;5038477;28;20025;-75
2022/09/10 06:05:27;;;;;;;10.95;8.23;;;;;;;14.45;96.83;100793.59;5046802;28;20053;-75
2022/09/10 06:07:52;;;;;;;12.07;8.13;;;;;;;14.46;96.65;100800.53;5051492;28;20031;-75
2022/09/10 06:10:18;;;;;;;13.25;8.38;;;;;;;14.46;97.01;100790.06;5040408;28;20483;-75
2022/09/10 06:12:51;;;;;;;13.40;8.70;;;;;;;14.46;96.79;100797.94;5037087;28;20032;-75
2022/09/10 06:15:18;;;;;;;13.05;7.93;;;;;;;14.48;96.58;100796.09;5041575;28;20032;-75
2022/09/10 06:17:44;;;;;;;14.52;8.25;;;;;;;14.48;96.46;100793.47;5041960;28;20025;-75
2022/09/10 06:20:11;;;;;;;12.90;8.57;;;;;;;14.48;96.48;100786.47;5041122;28;20100;-75
2022/09/10 06:22:38;;;;;;;12.65;8.23;;;;;;;14.50;96.65;100797.72;5035690;28;20033;-75
2022/09/10 06:25:04;;;;;;;13.32;9.20;;;;;;;14.51;96.74;100795.97;5035200;28;20053;-75
2022/09/10 06:27:29;;;;;;;11.93;8.63;;;;;;;14.53;97.12;100796.72;5042299;28;20023;-75
2022/09/10 06:29:55;;;;;;;14.50;8.68;;;;;;;14.55;96.53;100800.13;5036112;28;20100;-75
2022/09/10 06:32:21;;;;;;;12.25;8.20;;;;;;;14.58;96.60;100800.00;5038281;28;20021;-74
2022/09/10 06:34:46;;;;;;;14.35;8.23;;;;;;;14.59;96.94;100803.50;5054243;28;20029;-75
2022/09/10 06:37:12;;;;;;;12.70;7.97;;;;;;;14.60;96.44;100799.97;5044516;28;20037;-75
2022/09/10 06:39:37;;;;;;;14.30;8.00;;;;;;;14.61;96.76;100806.88;5044172;28;20033;-75
2022/09/10 06:42:02;;;;;;;12.23;7.82;;;;;;;14.62;96.69;100803.34;5049719;28;20049;-75
2022/09/10 06:44:28;;;;;;;11.20;7.57;;;;;;;14.62;96.55;100801.59;5037493;28;20037;-75
2022/09/10 06:46:53;;;;;;;10.80;7.22;;;;;;;14.64;96.58;100810.22;5045517;28;20127;-75
2022/09/10 06:49:20;;;;;;;10.73;7.55;;;;;;;14.64;96.03;100806.75;5041506;28;20156;-76
2022/09/10 06:51:46;;;;;;;11.07;7.20;;;;;;;14.64;96.32;100810.22;5041168;28;20448;-75
2022/09/10 06:54:11;;;;;;;11.40;7.13;;;;;;;14.64;96.41;100815.47;5042111;28;20029;-75
2022/09/10 06:56:37;;;;;;;11.23;7.10;;;;;;;14.64;96.06;100810.22;5041160;28;20048;-75
2022/09/10 06:59:02;;;;;;;9.98;7.22;;;;;;;14.65;95.70;100814.53;5039984;28;20040;-75
2022/09/10 07:01:28;;;;;;;10.02;7.43;;;;;;;14.66;96.14;100820.63;5048700;28;20021;-75
2022/09/10 07:03:55;;;;;;;10.85;7.18;;;;;;;14.67;96.04;100817.09;5037168;28;20033;-75
2022/09/10 07:06:22;;;;;;;10.20;7.50;;;;;;;14.68;95.96;100822.31;5036023;28;20024;-76
2022/09/10 07:08:47;;;;;;;11.25;7.55;;;;;;;14.67;96.20;100814.47;5051974;28;20029;-76
2022/09/10 07:11:14;;;;;;;13.05;8.07;;;;;;;14.69;95.89;100810.06;5038026;28;20036;-75
2022/09/10 07:13:40;;;;;;;10.98;8.05;;;;;;;14.70;96.05;100825.69;5046521;28;20392;-75
2022/09/10 07:16:06;;;;;;;11.68;8.00;;;;;;;14.71;96.14;100826.56;5029420;28;20029;-75
2022/09/10 07:18:32;;;;;;;13.98;8.35;;;;;;;14.71;95.71;100821.31;5044797;28;20047;-75
2022/09/10 07:21:12;;;;;;;11.00;8.25;;;;;;;14.71;96.00;100822.16;5044696;28;20037;-75
2022/09/10 07:23:38;;;;;;;11.68;8.30;;;;;;;14.72;96.39;100829.09;5024988;28;20040;-75
2022/09/10 07:26:14;;;;;;;11.45;8.13;;;;;;;14.75;96.39;100817.66;5046713;28;20368;-75
2022/09/10 07:28:41;;;;;;;13.65;8.80;;;;;;;14.79;96.28;100829.66;5043907;28;20473;-75
2022/09/10 07:31:21;;;;;;;12.20;8.77;;;;;;;14.82;96.22;100818.22;5045107;28;20054;-75
2022/09/10 07:33:47;;;;;;;13.00;9.13;;;;;;;14.86;96.43;100830.25;5045805;28;20032;-74
2022/09/10 07:36:15;;;;;;;9.90;8.35;;;;;;;14.89;96.32;100821.44;5046082;28;20139;-74
2022/09/10 07:38:41;;;;;;;13.38;9.30;;;;;;;14.89;96.28;100824.88;5044013;28;20371;-75
2022/09/10 07:41:10;;;;;;;12.32;8.77;;;;;;;14.90;96.28;100821.34;5046301;28;20571;-74
2022/09/10 07:43:37;;;;;;;14.13;8.55;;;;;;;14.89;96.13;100834.53;5042878;28;20028;-75
2022/09/10 07:46:03;;;;;;;12.18;8.40;;;;;;;14.90;95.90;100837.06;5043788;28;20083;-75
2022/09/10 07:48:28;;;;;;;11.68;8.43;;;;;;;14.89;95.70;100830.13;5043732;28;20037;-75
2022/09/10 07:51:01;;;;;;;10.18;8.43;;;;;;;14.89;95.81;100830.13;5044059;28;20079;-75
2022/09/10 07:53:26;;;;;;;10.70;8.18;;;;;;;14.91;95.65;100830.91;5044795;28;20534;-75
2022/09/10 07:56:00;;;;;;;11.80;8.65;;;;;;;14.95;95.74;100826.38;5026960;28;20029;-74
2022/09/10 07:58:28;;;;;;;11.13;8.95;;;;;;;14.99;95.82;100838.41;5045342;28;20111;-75
2022/09/10 08:00:53;;;;;;;11.90;9.05;;;;;;;15.00;95.99;100843.63;5043255;28;20025;-75
2022/09/10 08:03:20;;;;;;;10.15;8.85;;;;;;;15.00;95.77;100841.00;5045302;28;20032;-75
2022/09/10 08:05:46;;;;;;;10.73;8.90;;;;;;;14.99;95.43;100847.16;5041808;28;20056;-75
2022/09/10 08:08:12;;;;;;;12.45;9.43;;;;;;;14.99;95.47;100847.16;5042825;28;20383;-75
2022/09/10 08:10:37;;;;;;;11.48;9.07;;;;;;;15.00;95.46;100845.38;5042595;28;20025;-75
2022/09/10 08:13:02;;;;;;;10.02;8.88;;;;;;;15.00;95.35;100848.84;5044865;28;20674;-75
2022/09/10 08:15:28;;;;;;;10.57;9.13;;;;;;;15.01;95.28;100857.53;5042442;28;20033;-75
2022/09/10 08:17:54;;;;;;;11.85;9.77;;;;;;;15.01;95.39;100857.53;5044609;28;20500;-75
2022/09/10 08:20:20;;;;;;;14.35;10.07;;;;;;;15.02;95.39;100862.75;5040506;28;20043;-75
2022/09/10 08:22:48;;;;;;;13.48;10.57;;;;;;;15.06;95.44;100862.56;5046610;28;20058;-75
2022/09/10 08:25:13;;;;;;;12.40;10.85;;;;;;;15.07;95.68;100859.91;5043617;28;20063;-75
2022/09/10 08:27:40;;;;;;;14.13;10.93;;;;;;;15.09;95.53;100867.69;5042418;28;20069;-75
2022/09/10 08:30:06;;;;;;;15.40;10.93;;;;;;;15.12;95.33;100870.19;5045667;28;20021;-75
2022/09/10 08:32:33;;;;;;;12.45;10.95;;;;;;;15.14;95.69;100871.81;5044459;28;20090;-75
2022/09/10 08:34:59;;;;;;;12.50;11.20;;;;;;;15.19;95.54;100879.47;5047115;28;20024;-75
2022/09/10 08:37:24;;;;;;;15.13;11.73;;;;;;;15.23;95.48;100882.81;5043029;28;20063;-76
2022/09/10 08:39:49;;;;;;;15.80;12.30;;;;;;;15.29;95.91;100887.75;5045655;28;20055;-76
2022/09/10 08:42:23;;;;;;;13.32;11.93;;;;;;;15.35;95.78;100884.88;5043890;28;21351;-76
2022/09/10 08:45:28;;;;;;;13.88;11.60;;;;;;;15.41;95.46;100884.59;5045016;28;20023;-76
2022/09/10 08:48:17;;;;;;;12.90;11.48;;;;;;;15.52;95.54;100891.97;5041861;28;20095;-76
2022/09/10 08:50:55;;;;;;;14.80;12.40;;;;;;;15.60;95.68;100883.75;5042217;28;20102;-75
2022/09/10 08:53:42;;;;;;;16.67;12.80;;;;;;;15.66;94.89;100893.13;5046908;28;20032;-76
2022/09/10 08:56:14;;;;;;;16.17;12.95;;;;;;;15.68;94.74;100892.09;5044768;28;20021;-78
2022/09/10 08:58:39;;;;;;;;;;;;;;;15.73;93.92;100899.75;5042643;28;20120;-76
2022/09/10 09:01:09;;;;;;;14.45;11.95;;;;;;;15.74;94.48;100897.09;5043510;28;20003;-76
2022/09/10 09:03:39;;;;;;;15.45;12.70;;;;;;;15.77;94.32;100901.31;5044855;28;20120;-76
2022/09/10 09:06:15;;;;;;;15.32;13.73;;;;;;;15.80;93.96;100909.06;5041558;28;20114;-76
2022/09/10 09:08:47;;;;;;;16.58;13.02;;;;;;;15.87;93.78;100907.03;5035978;28;21604;-76
2022/09/10 09:11:34;;;;;;;15.73;12.88;;;;;;;15.95;93.86;100909.28;5044560;28;20021;-76
2022/09/10 09:14:28;;;;;;;13.60;12.07;;;;;;;15.98;93.16;100903.91;5044338;28;20039;-76
2022/09/10 09:17:13;;;;;;;14.40;11.52;;;;;;;16.01;92.90;100906.38;5046710;28;20487;-76
2022/09/10 09:19:48;;;;;;;13.43;11.65;;;;;;;16.01;93.13;100909.00;5016938;28;20569;-76
2022/09/10 09:22:42;;;;;;;13.43;11.05;;;;;;;15.97;93.35;100910.06;5044018;28;20024;-76
2022/09/10 09:25:21;;;;;;;12.52;10.10;;;;;;;15.96;93.54;100913.59;5048690;28;20043;-76
2022/09/10 09:27:48;;;;;;;12.20;9.45;;;;;;;15.96;93.79;100914.47;5043092;28;20033;-75
2022/09/10 09:30:29;;;;;;;11.02;9.70;;;;;;;15.95;94.03;100917.16;5046009;28;20123;-76
2022/09/10 09:33:02;;;;;;;10.87;9.77;;;;;;;15.97;93.99;100920.56;5044191;28;20095;-76
2022/09/10 09:36:03;;;;;;;11.27;9.48;;;;;;;15.99;93.64;100910.84;5046696;28;20087;-76
2022/09/10 09:38:37;;;;;;;11.05;9.30;;;;;;;15.99;93.90;100916.09;4982768;28;20045;-75
2022/09/10 09:41:29;;;;;;;10.38;9.38;;;;;;;15.99;93.88;100916.94;5031183;28;20488;-76
2022/09/10 09:44:13;;;;;;;10.40;8.68;;;;;;;16.00;93.80;100921.25;5043789;28;20039;-76
2022/09/10 09:46:39;;;;;;;13.23;8.60;;;;;;;16.03;93.92;100915.03;5025530;28;20063;-76
2022/09/10 09:49:14;;;;;;;10.88;9.32;;;;;;;16.07;94.17;100919.19;5046457;28;20069;-76
2022/09/10 09:51:40;;;;;;;12.30;10.00;;;;;;;16.15;94.24;100921.44;5047596;28;20021;-76
2022/09/10 09:54:16;;;;;;;11.30;9.73;;;;;;;16.29;94.49;100931.28;5043644;28;20025;-76
2022/09/10 09:56:45;;;;;;;11.60;10.32;;;;;;;16.38;94.51;100925.59;5027642;28;20044;-76
2022/09/10 09:59:30;;;;;;;12.02;10.73;;;;;;;16.43;94.31;100931.47;5044876;28;20056;-76
2022/09/10 10:02:03;;;;;;;13.65;10.40;;;;;;;16.47;93.70;100919.06;5049298;28;20822;-75
2022/09/10 10:04:30;;;;;;;12.07;10.30;;;;;;;16.53;94.13;100919.59;5046170;28;20090;-76
2022/09/10 10:06:58;;;;;;;11.88;10.27;;;;;;;16.59;94.36;100914.94;5043757;28;20032;-77
2022/09/10 10:09:38;;;;;;;13.23;10.35;;;;;;;16.67;94.42;100913.63;5044242;28;20488;-76
2022/09/10 10:12:05;;;;;;;12.30;10.82;;;;;;;16.75;93.24;100915.88;5045073;28;20025;-77
2022/09/10 10:14:30;;;;;;;11.27;9.95;;;;;;;16.85;93.74;100921.50;5044951;28;20029;-76
2022/09/10 10:16:57;;;;;;;13.63;10.50;;;;;;;16.92;93.15;100925.53;5041058;28;20379;-76
2022/09/10 10:19:31;;;;;;;12.02;10.27;;;;;;;17.01;93.33;100942.66;5045829;28;20083;-75
2022/09/10 10:22:16;;;;;;;12.90;10.20;;;;;;;17.03;92.20;100934.66;5043594;28;20041;-76
2022/09/10 10:24:43;;;;;;;12.15;9.60;;;;;;;17.03;92.48;100934.66;5043208;28;20040;-76
2022/09/10 10:27:25;;;;;;;11.68;9.10;;;;;;;17.01;92.26;100929.50;5042601;28;20033;-77
2022/09/10 10:29:52;;;;;;;;;;;;;;;17.05;91.51;100931.06;5041728;28;20037;-77
2022/09/10 10:32:19;;;;;;;12.20;8.77;;;;;;;17.02;91.34;100920.69;5039264;28;19935;-77
2022/09/10 10:34:47;;;;;;;11.60;8.77;;;;;;;17.07;91.59;100920.44;5043540;28;20395;-77
2022/09/10 10:37:36;;;;;;;11.80;8.68;;;;;;;17.10;91.79;100921.13;5042364;28;20025;-76
2022/09/10 10:40:12;;;;;;;9.93;8.27;;;;;;;17.13;90.68;100936.75;5039814;28;20056;-76
2022/09/10 10:42:44;;;;;;;10.23;8.70;;;;;;;17.11;91.09;100930.72;5039367;28;20528;-77
2022/09/10 10:45:41;;;;;;;11.45;8.48;;;;;;;17.11;90.96;100927.25;5042035;28;20044;-76
2022/09/10 10:48:27;;;;;;;13.35;8.35;;;;;;;17.06;90.68;100930.13;5039393;28;20033;-76
2022/09/10 10:51:01;;;;;;;11.18;7.10;;;;;;;16.99;89.85;100934.00;5041575;28;20151;-76
2022/09/10 10:53:55;;;;;;;11.50;7.82;;;;;;;16.93;89.83;100927.25;5045144;28;20523;-76
2022/09/10 10:56:34;;;;;;;10.35;7.00;;;;;;;16.89;89.90;100932.75;5043246;28;20071;-78
2022/09/10 10:59:41;;;;;;;7.95;6.95;;;;;;;16.82;90.61;100933.03;5024534;28;20037;-78
2022/09/10 11:02:15;;;;;;;9.30;6.65;;;;;;;16.76;91.09;100943.00;5023231;28;20053;-79
2022/09/10 11:04:47;;;;;;;8.98;6.55;;;;;;;16.73;91.17;100944.03;5037864;28;20061;-79
2022/09/10 11:07:21;;;;;;;8.73;6.20;;;;;;;16.70;91.52;100944.16;5041864;28;20044;-79
2022/09/10 11:10:14;;;;;;;9.48;6.25;;;;;;;16.68;91.63;100948.66;5041766;28;20052;-78
2022/09/10 11:12:49;;;;;;;9.40;5.90;;;;;;;16.68;92.21;100956.53;5038221;28;20032;-78
2022/09/10 11:15:29;;;;;;;9.07;5.47;;;;;;;16.65;92.48;100967.19;5040714;28;20071;-78
2022/09/10 11:18:11;;;;;;;8.45;5.50;;;;;;;16.63;92.70;100964.66;5044284;28;20523;-78
2022/09/10 11:20:45;;;;;;;8.82;5.30;;;;;;;16.64;92.87;100955.84;5044598;28;20032;-78
2022/09/10 11:23:21;;;;;;;5.35;4.72;;;;;;;16.67;93.06;100965.34;5044770;28;20484;-78
2022/09/10 11:26:09;;;;;;;7.30;4.20;;;;;;;16.68;93.27;100959.16;5047024;28;20029;-78
2022/09/10 11:28:46;;;;;;;7.25;3.65;;;;;;;16.69;92.48;100959.06;5038942;28;20370;-77
2022/09/10 11:31:29;;;;;;;6.90;3.72;;;;;;;16.71;92.48;100956.38;5041704;28;20099;-78
2022/09/10 11:34:23;;;;;;;7.60;4.20;;;;;;;16.72;92.08;100957.22;5039051;28;20473;-78